AIQ572 RPLL-VTBS
Flight info
| Callsign | AIQ572 |
|---|---|
| Flight time | 3h 15m |
| Altitude | 38000 |
| Route | SIRCA L628 ARESI/K0817F380 L628 PCA G474 ANINA/N0439F380 G474 VEMKO M633 DULEM |
| Aircraft | A21N/M-SDE2E3FGHIRWXY/LB1 |
Departure
| Time | 2026-05-06 05:46 |
|---|---|
| Airport | Ninoy Aquino International Airport (RPLL) |
Arrival
| Time | 2026-05-06 09:01 |
|---|---|
| Airport | Suvarnabhumi Airport (VTBS) |
| Time | Latitude | Longitude | Altitude | Speed | Heading |
|---|---|---|---|---|---|
| 2026-05-06 05:23 | 14.51706 | 121.01465 | 74 ft | 0 kts | 45° |
| 2026-05-06 05:34 | 14.51705 | 121.01465 | 74 ft | 1 kts | 45° |
| 2026-05-06 05:35 | 14.51688 | 121.01447 | 71 ft | 4 kts | 45° |
| 2026-05-06 05:35 | 14.51668 | 121.01427 | 66 ft | 4 kts | 45° |
| 2026-05-06 05:35 | 14.51654 | 121.01411 | 64 ft | 4 kts | 65° |
| 2026-05-06 05:35 | 14.51653 | 121.01389 | 64 ft | 4 kts | 123° |
| 2026-05-06 05:36 | 14.51663 | 121.01376 | 64 ft | 3 kts | 135° |
| 2026-05-06 05:36 | 14.51644 | 121.01396 | 65 ft | 4 kts | 135° |
| 2026-05-06 05:36 | 14.51626 | 121.01415 | 67 ft | 2 kts | 135° |
| 2026-05-06 05:36 | 14.51624 | 121.01416 | 68 ft | 0 kts | 135° |
| 2026-05-06 05:39 | 14.51619 | 121.01422 | 74 ft | 3 kts | 135° |
| 2026-05-06 05:39 | 14.51594 | 121.01448 | 72 ft | 7 kts | 135° |
| 2026-05-06 05:39 | 14.51566 | 121.01477 | 72 ft | 10 kts | 135° |
| 2026-05-06 05:39 | 14.51506 | 121.01538 | 73 ft | 14 kts | 135° |
| 2026-05-06 05:40 | 14.51403 | 121.01645 | 73 ft | 18 kts | 135° |
| 2026-05-06 05:40 | 14.51341 | 121.01709 | 74 ft | 19 kts | 135° |
| 2026-05-06 05:40 | 14.51204 | 121.01851 | 72 ft | 23 kts | 135° |
| 2026-05-06 05:40 | 14.51126 | 121.01932 | 74 ft | 24 kts | 134° |
| 2026-05-06 05:41 | 14.51027 | 121.01967 | 74 ft | 18 kts | 237° |
| 2026-05-06 05:41 | 14.50964 | 121.01849 | 65 ft | 20 kts | 239° |
| 2026-05-06 05:41 | 14.50889 | 121.01715 | 70 ft | 22 kts | 239° |
| 2026-05-06 05:41 | 14.50805 | 121.01569 | 70 ft | 25 kts | 239° |
| 2026-05-06 05:42 | 14.50716 | 121.01406 | 72 ft | 27 kts | 240° |
| 2026-05-06 05:42 | 14.50620 | 121.01233 | 70 ft | 29 kts | 240° |
| 2026-05-06 05:42 | 14.50513 | 121.01042 | 74 ft | 31 kts | 240° |
| 2026-05-06 05:42 | 14.50401 | 121.00842 | 67 ft | 33 kts | 239° |
| 2026-05-06 05:43 | 14.50285 | 121.00631 | 67 ft | 35 kts | 241° |
| 2026-05-06 05:43 | 14.50162 | 121.00415 | 73 ft | 34 kts | 240° |
| 2026-05-06 05:43 | 14.50046 | 121.00202 | 74 ft | 35 kts | 240° |
| 2026-05-06 05:43 | 14.49958 | 121.00044 | 71 ft | 17 kts | 239° |
| 2026-05-06 05:44 | 14.49873 | 120.99975 | 68 ft | 13 kts | 159° |
| 2026-05-06 05:44 | 14.49809 | 121.00040 | 68 ft | 16 kts | 86° |
| 2026-05-06 05:44 | 14.49828 | 121.00084 | 73 ft | 0 kts | 60° |
| 2026-05-06 05:45 | 14.49829 | 121.00084 | 73 ft | 0 kts | 60° |
| 2026-05-06 05:45 | 14.49858 | 121.00136 | 65 ft | 40 kts | 59° |
| 2026-05-06 05:46 | 14.50153 | 121.00673 | 69 ft | 128 kts | 60° |
| 2026-05-06 05:46 | 14.50708 | 121.01664 | 244 ft | 175 kts | 61° |
| 2026-05-06 05:46 | 14.51297 | 121.02727 | 1139 ft | 172 kts | 63° |
| 2026-05-06 05:46 | 14.51893 | 121.03817 | 2092 ft | 176 kts | 62° |
| 2026-05-06 05:47 | 14.52504 | 121.04915 | 3071 ft | 176 kts | 62° |
| 2026-05-06 05:47 | 14.53159 | 121.06102 | 3807 ft | 209 kts | 62° |
| 2026-05-06 05:47 | 14.53909 | 121.07460 | 4468 ft | 240 kts | 61° |
| 2026-05-06 05:47 | 14.54775 | 121.09022 | 5293 ft | 259 kts | 61° |
| 2026-05-06 05:48 | 14.55682 | 121.10656 | 6392 ft | 265 kts | 61° |
| 2026-05-06 05:48 | 14.56729 | 121.12240 | 7477 ft | 270 kts | 47° |
| 2026-05-06 05:48 | 14.58293 | 121.13300 | 8656 ft | 274 kts | 21° |
| 2026-05-06 05:48 | 14.60194 | 121.13583 | 9784 ft | 281 kts | 2° |
| 2026-05-06 05:49 | 14.62166 | 121.13561 | 10761 ft | 286 kts | 1° |
| 2026-05-06 05:49 | 14.64175 | 121.13531 | 11783 ft | 291 kts | 1° |
| 2026-05-06 05:49 | 14.66199 | 121.13367 | 12816 ft | 294 kts | 348° |
| 2026-05-06 05:49 | 14.68082 | 121.12516 | 13772 ft | 301 kts | 325° |
| 2026-05-06 05:50 | 14.69495 | 121.10915 | 14616 ft | 308 kts | 301° |
| 2026-05-06 05:50 | 14.70166 | 121.08810 | 15452 ft | 314 kts | 276° |
| 2026-05-06 05:50 | 14.70192 | 121.06543 | 16309 ft | 318 kts | 268° |
| 2026-05-06 05:50 | 14.70113 | 121.04246 | 17170 ft | 322 kts | 268° |
| 2026-05-06 05:51 | 14.70052 | 121.01924 | 18066 ft | 325 kts | 268° |
| 2026-05-06 05:51 | 14.69881 | 120.99578 | 18758 ft | 331 kts | 258° |
| 2026-05-06 05:51 | 14.69190 | 120.97255 | 19166 ft | 348 kts | 249° |
| 2026-05-06 05:51 | 14.68312 | 120.94893 | 19467 ft | 366 kts | 248° |
| 2026-05-06 05:52 | 14.67359 | 120.92350 | 19793 ft | 383 kts | 248° |
| 2026-05-06 05:52 | 14.66399 | 120.89735 | 20174 ft | 395 kts | 249° |
| 2026-05-06 05:52 | 14.65442 | 120.87089 | 20755 ft | 401 kts | 249° |
| 2026-05-06 05:52 | 14.64466 | 120.84384 | 21441 ft | 403 kts | 249° |
| 2026-05-06 05:53 | 14.63483 | 120.81662 | 22148 ft | 406 kts | 249° |
| 2026-05-06 05:53 | 14.62493 | 120.78917 | 22827 ft | 409 kts | 249° |
| 2026-05-06 05:53 | 14.61497 | 120.76151 | 23488 ft | 412 kts | 249° |
| 2026-05-06 05:53 | 14.60490 | 120.73368 | 24054 ft | 415 kts | 249° |
| 2026-05-06 05:54 | 14.59478 | 120.70569 | 24590 ft | 418 kts | 249° |
| 2026-05-06 05:54 | 14.58463 | 120.67749 | 25094 ft | 421 kts | 249° |
| 2026-05-06 05:54 | 14.57432 | 120.64895 | 25581 ft | 425 kts | 249° |
| 2026-05-06 05:54 | 14.56396 | 120.62024 | 26097 ft | 428 kts | 249° |
| 2026-05-06 05:55 | 14.55359 | 120.59140 | 26632 ft | 430 kts | 249° |
| 2026-05-06 05:55 | 14.54312 | 120.56232 | 27130 ft | 433 kts | 249° |
| 2026-05-06 05:55 | 14.53253 | 120.53304 | 27625 ft | 436 kts | 249° |
| 2026-05-06 05:55 | 14.52190 | 120.50366 | 28101 ft | 439 kts | 249° |
| 2026-05-06 05:56 | 14.51117 | 120.47406 | 28599 ft | 442 kts | 249° |
| 2026-05-06 05:56 | 14.50037 | 120.44429 | 29091 ft | 444 kts | 249° |
| 2026-05-06 05:56 | 14.48951 | 120.41436 | 29520 ft | 448 kts | 249° |
| 2026-05-06 05:56 | 14.47854 | 120.38406 | 29949 ft | 451 kts | 249° |
| 2026-05-06 05:57 | 14.46766 | 120.35371 | 30401 ft | 452 kts | 251° |
| 2026-05-06 05:57 | 14.45986 | 120.32221 | 30765 ft | 455 kts | 261° |
| 2026-05-06 05:57 | 14.45681 | 120.28980 | 31324 ft | 453 kts | 265° |
| 2026-05-06 05:57 | 14.45469 | 120.25742 | 31897 ft | 451 kts | 266° |
| 2026-05-06 05:58 | 14.45262 | 120.22524 | 32470 ft | 448 kts | 266° |
| 2026-05-06 05:58 | 14.45046 | 120.19325 | 33047 ft | 446 kts | 265° |
| 2026-05-06 05:58 | 14.44824 | 120.16140 | 33610 ft | 444 kts | 265° |
| 2026-05-06 05:58 | 14.44602 | 120.12970 | 34110 ft | 442 kts | 266° |
| 2026-05-06 05:59 | 14.44382 | 120.09814 | 34572 ft | 440 kts | 265° |
| 2026-05-06 05:59 | 14.44164 | 120.06672 | 35037 ft | 439 kts | 265° |
| 2026-05-06 05:59 | 14.43943 | 120.03538 | 35475 ft | 437 kts | 265° |
| 2026-05-06 05:59 | 14.43721 | 120.00418 | 35910 ft | 436 kts | 265° |
| 2026-05-06 06:00 | 14.43497 | 119.97306 | 36341 ft | 434 kts | 265° |
| 2026-05-06 06:00 | 14.43274 | 119.94206 | 36758 ft | 433 kts | 265° |
| 2026-05-06 06:00 | 14.43053 | 119.91111 | 37164 ft | 431 kts | 265° |
| 2026-05-06 06:00 | 14.42831 | 119.88032 | 37538 ft | 431 kts | 265° |
| 2026-05-06 06:01 | 14.42608 | 119.84991 | 37815 ft | 431 kts | 265° |
| 2026-05-06 06:01 | 14.42383 | 119.81909 | 37867 ft | 431 kts | 265° |
| 2026-05-06 06:01 | 14.41938 | 119.75754 | 37857 ft | 430 kts | 265° |
| 2026-05-06 06:02 | 14.41491 | 119.69602 | 37845 ft | 430 kts | 265° |
| 2026-05-06 06:02 | 14.41041 | 119.63443 | 37844 ft | 430 kts | 265° |
| 2026-05-06 06:03 | 14.40584 | 119.57286 | 37845 ft | 430 kts | 265° |
| 2026-05-06 06:03 | 14.40131 | 119.51135 | 37848 ft | 431 kts | 265° |
| 2026-05-06 06:04 | 14.39675 | 119.44977 | 37840 ft | 431 kts | 265° |
| 2026-05-06 06:04 | 14.39223 | 119.38816 | 37845 ft | 431 kts | 265° |
| 2026-05-06 06:05 | 14.38765 | 119.32662 | 37850 ft | 431 kts | 265° |
| 2026-05-06 06:05 | 14.38304 | 119.26498 | 37851 ft | 431 kts | 265° |
| 2026-05-06 06:06 | 14.37838 | 119.20340 | 37848 ft | 431 kts | 266° |
| 2026-05-06 06:06 | 14.37377 | 119.14177 | 37849 ft | 431 kts | 266° |
| 2026-05-06 06:07 | 14.36909 | 119.08009 | 37851 ft | 431 kts | 266° |
| 2026-05-06 06:07 | 14.36444 | 119.01844 | 37852 ft | 431 kts | 266° |
| 2026-05-06 06:08 | 14.35974 | 118.95678 | 37853 ft | 432 kts | 266° |
| 2026-05-06 06:08 | 14.35502 | 118.89504 | 37852 ft | 432 kts | 266° |
| 2026-05-06 06:09 | 14.35034 | 118.83368 | 37853 ft | 432 kts | 266° |
| 2026-05-06 06:09 | 14.34557 | 118.77157 | 37853 ft | 432 kts | 266° |
| 2026-05-06 06:10 | 14.34086 | 118.71021 | 37857 ft | 432 kts | 266° |
| 2026-05-06 06:10 | 14.33606 | 118.64837 | 37850 ft | 433 kts | 266° |
| 2026-05-06 06:11 | 14.33127 | 118.58656 | 37853 ft | 433 kts | 266° |
| 2026-05-06 06:11 | 14.32643 | 118.52467 | 37855 ft | 433 kts | 266° |
| 2026-05-06 06:12 | 14.32159 | 118.46277 | 37857 ft | 433 kts | 266° |
| 2026-05-06 06:12 | 14.31676 | 118.40092 | 37854 ft | 433 kts | 266° |
| 2026-05-06 06:13 | 14.31188 | 118.33901 | 37855 ft | 433 kts | 266° |
| 2026-05-06 06:13 | 14.30702 | 118.27750 | 37857 ft | 433 kts | 266° |
| 2026-05-06 06:14 | 14.30212 | 118.21562 | 37859 ft | 433 kts | 266° |
| 2026-05-06 06:14 | 14.29721 | 118.15375 | 37858 ft | 433 kts | 266° |
| 2026-05-06 06:15 | 14.29227 | 118.09196 | 37853 ft | 432 kts | 266° |
| 2026-05-06 06:15 | 14.28734 | 118.03022 | 37856 ft | 432 kts | 266° |
| 2026-05-06 06:16 | 14.28240 | 117.96846 | 37855 ft | 432 kts | 266° |
| 2026-05-06 06:16 | 14.27740 | 117.90671 | 37856 ft | 432 kts | 266° |
| 2026-05-06 06:17 | 14.27241 | 117.84490 | 37855 ft | 433 kts | 266° |
| 2026-05-06 06:17 | 14.26739 | 117.78314 | 37858 ft | 433 kts | 266° |
| 2026-05-06 06:18 | 14.26234 | 117.72128 | 37859 ft | 433 kts | 266° |
| 2026-05-06 06:18 | 14.25734 | 117.65951 | 37856 ft | 433 kts | 266° |
| 2026-05-06 06:19 | 14.25230 | 117.59771 | 37860 ft | 433 kts | 266° |
| 2026-05-06 06:19 | 14.24720 | 117.53586 | 37855 ft | 432 kts | 266° |
| 2026-05-06 06:20 | 14.24213 | 117.47411 | 37859 ft | 433 kts | 266° |
| 2026-05-06 06:20 | 14.23699 | 117.41236 | 37860 ft | 433 kts | 266° |
| 2026-05-06 06:21 | 14.23190 | 117.35092 | 37859 ft | 433 kts | 266° |
| 2026-05-06 06:21 | 14.22680 | 117.28915 | 37864 ft | 433 kts | 266° |
| 2026-05-06 06:22 | 14.22162 | 117.22735 | 37858 ft | 432 kts | 266° |
| 2026-05-06 06:22 | 14.21645 | 117.16563 | 37858 ft | 432 kts | 266° |
| 2026-05-06 06:23 | 14.21128 | 117.10390 | 37858 ft | 432 kts | 266° |
| 2026-05-06 06:23 | 14.20609 | 117.04224 | 37856 ft | 432 kts | 266° |
| 2026-05-06 06:24 | 14.20090 | 116.98061 | 37858 ft | 432 kts | 265° |
| 2026-05-06 06:24 | 14.19568 | 116.91896 | 37854 ft | 431 kts | 265° |
| 2026-05-06 06:25 | 14.19041 | 116.85734 | 37856 ft | 432 kts | 265° |
| 2026-05-06 06:26 | 14.18235 | 116.76499 | 37860 ft | 431 kts | 265° |
| 2026-05-06 06:26 | 14.17709 | 116.70343 | 37861 ft | 431 kts | 265° |
| 2026-05-06 06:27 | 14.17269 | 116.65225 | 37859 ft | 432 kts | 265° |
| 2026-05-06 06:27 | 14.16752 | 116.59062 | 37858 ft | 431 kts | 266° |
| 2026-05-06 06:28 | 14.16229 | 116.52928 | 37856 ft | 431 kts | 266° |
| 2026-05-06 06:28 | 14.15694 | 116.46771 | 37858 ft | 431 kts | 266° |
| 2026-05-06 06:29 | 14.15157 | 116.40623 | 37860 ft | 431 kts | 266° |
| 2026-05-06 06:29 | 14.14623 | 116.34472 | 37858 ft | 431 kts | 266° |
| 2026-05-06 06:30 | 14.14084 | 116.28324 | 37851 ft | 431 kts | 266° |
| 2026-05-06 06:30 | 14.13547 | 116.22174 | 37859 ft | 431 kts | 266° |
| 2026-05-06 06:31 | 14.13008 | 116.16029 | 37859 ft | 431 kts | 265° |
| 2026-05-06 06:31 | 14.12454 | 116.09884 | 37860 ft | 430 kts | 265° |
| 2026-05-06 06:32 | 14.11907 | 116.03746 | 37860 ft | 430 kts | 265° |
| 2026-05-06 06:32 | 14.11357 | 115.97608 | 37862 ft | 430 kts | 266° |
| 2026-05-06 06:33 | 14.10824 | 115.91467 | 37855 ft | 430 kts | 266° |
| 2026-05-06 06:33 | 14.10275 | 115.85332 | 37859 ft | 430 kts | 265° |
| 2026-05-06 06:34 | 14.09719 | 115.79198 | 37857 ft | 430 kts | 265° |
| 2026-05-06 06:34 | 14.09167 | 115.73056 | 37858 ft | 430 kts | 265° |
| 2026-05-06 06:35 | 14.08615 | 115.66969 | 37859 ft | 430 kts | 265° |
| 2026-05-06 06:35 | 14.08061 | 115.60843 | 37860 ft | 430 kts | 265° |
| 2026-05-06 06:36 | 14.07518 | 115.54715 | 37856 ft | 430 kts | 266° |
| 2026-05-06 06:36 | 14.06964 | 115.48587 | 37859 ft | 430 kts | 265° |
| 2026-05-06 06:37 | 14.06401 | 115.42459 | 37863 ft | 429 kts | 265° |
| 2026-05-06 06:37 | 14.05837 | 115.36333 | 37864 ft | 430 kts | 265° |
| 2026-05-06 06:38 | 14.05278 | 115.30209 | 37864 ft | 430 kts | 265° |
| 2026-05-06 06:38 | 14.04718 | 115.24082 | 37859 ft | 429 kts | 265° |
| 2026-05-06 06:39 | 14.04153 | 115.17962 | 37857 ft | 429 kts | 265° |
| 2026-05-06 06:39 | 14.03588 | 115.11839 | 37857 ft | 429 kts | 265° |
| 2026-05-06 06:40 | 14.03025 | 115.05720 | 37858 ft | 429 kts | 265° |
| 2026-05-06 06:40 | 14.02455 | 114.99598 | 37861 ft | 429 kts | 265° |
| 2026-05-06 06:41 | 14.01881 | 114.93479 | 37861 ft | 429 kts | 265° |
| 2026-05-06 06:41 | 14.01305 | 114.87359 | 37858 ft | 429 kts | 265° |
| 2026-05-06 06:42 | 14.00732 | 114.81240 | 37862 ft | 430 kts | 265° |
| 2026-05-06 06:42 | 14.00156 | 114.75114 | 37860 ft | 430 kts | 265° |
| 2026-05-06 06:43 | 13.99584 | 114.68993 | 37857 ft | 429 kts | 265° |
| 2026-05-06 06:43 | 13.99006 | 114.62877 | 37858 ft | 429 kts | 265° |
| 2026-05-06 06:44 | 13.98428 | 114.56799 | 37858 ft | 429 kts | 265° |
| 2026-05-06 06:44 | 13.97853 | 114.50670 | 37859 ft | 430 kts | 265° |
| 2026-05-06 06:45 | 13.97333 | 114.44545 | 37858 ft | 429 kts | 269° |
| 2026-05-06 06:45 | 13.97355 | 114.38402 | 37854 ft | 429 kts | 271° |
| 2026-05-06 06:46 | 13.97408 | 114.32263 | 37861 ft | 429 kts | 271° |
| 2026-05-06 06:46 | 13.97453 | 114.26125 | 37861 ft | 429 kts | 271° |
| 2026-05-06 06:47 | 13.97493 | 114.19984 | 37859 ft | 429 kts | 271° |
| 2026-05-06 06:47 | 13.97532 | 114.13839 | 37859 ft | 429 kts | 271° |
| 2026-05-06 06:48 | 13.97569 | 114.07703 | 37854 ft | 429 kts | 271° |
| 2026-05-06 06:48 | 13.97603 | 114.01562 | 37860 ft | 429 kts | 271° |
| 2026-05-06 06:49 | 13.97639 | 113.95423 | 37858 ft | 429 kts | 271° |
| 2026-05-06 06:49 | 13.97680 | 113.89285 | 37860 ft | 428 kts | 271° |
| 2026-05-06 06:50 | 13.97713 | 113.83149 | 37862 ft | 429 kts | 271° |
| 2026-05-06 06:50 | 13.97745 | 113.77013 | 37861 ft | 429 kts | 271° |
| 2026-05-06 06:51 | 13.97776 | 113.70884 | 37861 ft | 429 kts | 271° |
| 2026-05-06 06:51 | 13.97803 | 113.64746 | 37855 ft | 428 kts | 271° |
| 2026-05-06 06:52 | 13.97829 | 113.58617 | 37854 ft | 428 kts | 271° |
| 2026-05-06 06:52 | 13.97846 | 113.52483 | 37863 ft | 428 kts | 271° |
| 2026-05-06 06:53 | 13.97867 | 113.46397 | 37857 ft | 428 kts | 271° |
| 2026-05-06 06:53 | 13.97880 | 113.40270 | 37861 ft | 428 kts | 271° |
| 2026-05-06 06:54 | 13.97913 | 113.34138 | 37859 ft | 428 kts | 271° |
| 2026-05-06 06:54 | 13.97936 | 113.28008 | 37857 ft | 428 kts | 271° |
| 2026-05-06 06:55 | 13.97954 | 113.21888 | 37860 ft | 428 kts | 271° |
| 2026-05-06 06:55 | 13.97961 | 113.15761 | 37859 ft | 428 kts | 271° |
| 2026-05-06 06:56 | 13.97970 | 113.09642 | 37858 ft | 427 kts | 271° |
| 2026-05-06 06:56 | 13.97983 | 113.03522 | 37857 ft | 427 kts | 271° |
| 2026-05-06 06:57 | 13.97996 | 112.97413 | 37858 ft | 427 kts | 271° |
| 2026-05-06 06:57 | 13.98004 | 112.91300 | 37856 ft | 427 kts | 271° |
| 2026-05-06 06:58 | 13.98013 | 112.85192 | 37856 ft | 426 kts | 271° |
| 2026-05-06 06:58 | 13.98015 | 112.79090 | 37855 ft | 427 kts | 271° |
| 2026-05-06 06:59 | 13.98022 | 112.72978 | 37851 ft | 426 kts | 271° |
| 2026-05-06 06:59 | 13.98026 | 112.66873 | 37858 ft | 426 kts | 271° |
| 2026-05-06 07:00 | 13.98028 | 112.60775 | 37855 ft | 426 kts | 271° |
| 2026-05-06 07:00 | 13.98029 | 112.54674 | 37856 ft | 425 kts | 271° |
| 2026-05-06 07:01 | 13.98029 | 112.48623 | 37857 ft | 425 kts | 271° |
| 2026-05-06 07:01 | 13.98036 | 112.42531 | 37861 ft | 426 kts | 271° |
| 2026-05-06 07:02 | 13.98034 | 112.36440 | 37860 ft | 426 kts | 271° |
| 2026-05-06 07:02 | 13.98019 | 112.30350 | 37858 ft | 425 kts | 271° |
| 2026-05-06 07:03 | 13.98018 | 112.24259 | 37857 ft | 425 kts | 271° |
| 2026-05-06 07:03 | 13.98010 | 112.18177 | 37859 ft | 425 kts | 271° |
| 2026-05-06 07:04 | 13.97989 | 112.12096 | 37858 ft | 425 kts | 271° |
| 2026-05-06 07:04 | 13.97985 | 112.06015 | 37862 ft | 425 kts | 271° |
| 2026-05-06 07:05 | 13.97974 | 111.99938 | 37868 ft | 425 kts | 271° |
| 2026-05-06 07:05 | 13.97961 | 111.93856 | 37864 ft | 425 kts | 271° |
| 2026-05-06 07:06 | 13.97942 | 111.87769 | 37860 ft | 425 kts | 271° |
| 2026-05-06 07:06 | 13.97927 | 111.81687 | 37857 ft | 425 kts | 271° |
| 2026-05-06 07:07 | 13.97909 | 111.75605 | 37856 ft | 425 kts | 271° |
| 2026-05-06 07:07 | 13.97887 | 111.69521 | 37860 ft | 425 kts | 271° |
| 2026-05-06 07:08 | 13.97863 | 111.63439 | 37858 ft | 425 kts | 271° |
| 2026-05-06 07:08 | 13.97837 | 111.57353 | 37855 ft | 425 kts | 270° |
| 2026-05-06 07:09 | 13.97809 | 111.51269 | 37855 ft | 425 kts | 270° |
| 2026-05-06 07:09 | 13.97785 | 111.45184 | 37853 ft | 425 kts | 270° |
| 2026-05-06 07:10 | 13.97755 | 111.39102 | 37865 ft | 425 kts | 271° |
| 2026-05-06 07:10 | 13.97724 | 111.33021 | 37855 ft | 425 kts | 270° |
| 2026-05-06 07:11 | 13.97688 | 111.26937 | 37861 ft | 425 kts | 270° |
| 2026-05-06 07:11 | 13.97653 | 111.20895 | 37858 ft | 425 kts | 270° |
| 2026-05-06 07:12 | 13.97618 | 111.14816 | 37862 ft | 425 kts | 270° |
| 2026-05-06 07:12 | 13.97581 | 111.08737 | 37855 ft | 425 kts | 270° |
| 2026-05-06 07:13 | 13.97543 | 111.02655 | 37861 ft | 425 kts | 270° |
| 2026-05-06 07:13 | 13.97501 | 110.96573 | 37864 ft | 425 kts | 270° |
| 2026-05-06 07:14 | 13.97460 | 110.90484 | 37861 ft | 425 kts | 270° |
| 2026-05-06 07:14 | 13.97424 | 110.85384 | 37859 ft | 425 kts | 270° |
| 2026-05-06 07:15 | 13.97377 | 110.79298 | 37857 ft | 425 kts | 270° |
| 2026-05-06 07:15 | 13.97327 | 110.73250 | 37862 ft | 425 kts | 270° |
| 2026-05-06 07:16 | 13.97276 | 110.67165 | 37852 ft | 425 kts | 270° |
| 2026-05-06 07:16 | 13.97224 | 110.61076 | 37857 ft | 426 kts | 270° |
| 2026-05-06 07:17 | 13.97174 | 110.54979 | 37853 ft | 426 kts | 270° |
| 2026-05-06 07:17 | 13.97121 | 110.48882 | 37853 ft | 426 kts | 270° |
| 2026-05-06 07:18 | 13.97065 | 110.42784 | 37851 ft | 426 kts | 270° |
| 2026-05-06 07:18 | 13.97010 | 110.36685 | 37854 ft | 426 kts | 270° |
| 2026-05-06 07:19 | 13.96948 | 110.30584 | 37849 ft | 425 kts | 270° |
| 2026-05-06 07:19 | 13.96888 | 110.24493 | 37856 ft | 426 kts | 270° |
| 2026-05-06 07:20 | 13.96832 | 110.18394 | 37852 ft | 426 kts | 270° |
| 2026-05-06 07:20 | 13.96765 | 110.12298 | 37855 ft | 426 kts | 270° |
| 2026-05-06 07:21 | 13.96702 | 110.06196 | 37853 ft | 426 kts | 270° |
| 2026-05-06 07:21 | 13.96636 | 110.00093 | 37858 ft | 426 kts | 270° |
| 2026-05-06 07:22 | 13.96583 | 109.93992 | 37854 ft | 427 kts | 270° |
| 2026-05-06 07:22 | 13.96538 | 109.87886 | 37857 ft | 427 kts | 270° |
| 2026-05-06 07:23 | 13.96488 | 109.81778 | 37851 ft | 426 kts | 270° |
| 2026-05-06 07:23 | 13.96435 | 109.75674 | 37860 ft | 426 kts | 270° |
| 2026-05-06 07:24 | 13.96380 | 109.69570 | 37853 ft | 426 kts | 270° |
| 2026-05-06 07:24 | 13.96322 | 109.63463 | 37848 ft | 426 kts | 270° |
| 2026-05-06 07:25 | 13.96268 | 109.57400 | 37855 ft | 426 kts | 270° |
| 2026-05-06 07:25 | 13.96209 | 109.51297 | 37855 ft | 426 kts | 270° |
| 2026-05-06 07:26 | 13.96148 | 109.45191 | 37854 ft | 426 kts | 270° |
| 2026-05-06 07:26 | 13.96079 | 109.39091 | 37859 ft | 426 kts | 270° |
| 2026-05-06 07:27 | 13.96023 | 109.32988 | 37858 ft | 426 kts | 270° |
| 2026-05-06 07:27 | 13.95973 | 109.26883 | 37856 ft | 427 kts | 269° |
| 2026-05-06 07:28 | 13.95900 | 109.20783 | 37860 ft | 426 kts | 270° |
| 2026-05-06 07:28 | 13.95797 | 109.11627 | 37856 ft | 426 kts | 270° |
| 2026-05-06 07:29 | 13.95729 | 109.05528 | 37855 ft | 426 kts | 270° |
| 2026-05-06 07:29 | 13.95947 | 108.99434 | 37857 ft | 426 kts | 273° |
| 2026-05-06 07:30 | 13.96242 | 108.93349 | 37858 ft | 425 kts | 273° |
| 2026-05-06 07:30 | 13.96537 | 108.87266 | 37865 ft | 426 kts | 273° |
| 2026-05-06 07:31 | 13.96837 | 108.81179 | 37861 ft | 426 kts | 273° |
| 2026-05-06 07:31 | 13.97137 | 108.75089 | 37860 ft | 426 kts | 273° |
| 2026-05-06 07:32 | 13.97433 | 108.68995 | 37860 ft | 426 kts | 273° |
| 2026-05-06 07:32 | 13.97729 | 108.62942 | 37866 ft | 426 kts | 273° |
| 2026-05-06 07:33 | 13.98028 | 108.56803 | 37856 ft | 426 kts | 273° |
| 2026-05-06 07:33 | 13.98311 | 108.50748 | 37860 ft | 426 kts | 273° |
| 2026-05-06 07:34 | 13.98602 | 108.44653 | 37854 ft | 426 kts | 273° |
| 2026-05-06 07:34 | 13.98895 | 108.38553 | 37869 ft | 427 kts | 273° |
| 2026-05-06 07:35 | 13.99176 | 108.32452 | 37868 ft | 427 kts | 273° |
| 2026-05-06 07:35 | 13.99461 | 108.26343 | 37868 ft | 428 kts | 273° |
| 2026-05-06 07:36 | 13.99750 | 108.20230 | 37864 ft | 428 kts | 273° |
| 2026-05-06 07:36 | 14.00035 | 108.14114 | 37864 ft | 428 kts | 273° |
| 2026-05-06 07:37 | 14.00316 | 108.07987 | 37854 ft | 428 kts | 273° |
| 2026-05-06 07:37 | 14.00549 | 108.01861 | 37853 ft | 428 kts | 269° |
| 2026-05-06 07:38 | 14.00348 | 107.95728 | 37856 ft | 429 kts | 268° |
| 2026-05-06 07:38 | 14.00113 | 107.89620 | 37848 ft | 429 kts | 268° |
| 2026-05-06 07:39 | 13.99892 | 107.83444 | 37841 ft | 429 kts | 268° |
| 2026-05-06 07:39 | 13.99667 | 107.77300 | 37839 ft | 429 kts | 268° |
| 2026-05-06 07:40 | 13.99439 | 107.71155 | 37832 ft | 430 kts | 268° |
| 2026-05-06 07:40 | 13.99207 | 107.65006 | 37835 ft | 430 kts | 268° |
| 2026-05-06 07:41 | 13.98979 | 107.58898 | 37831 ft | 430 kts | 268° |
| 2026-05-06 07:41 | 13.98743 | 107.52756 | 37824 ft | 429 kts | 268° |
| 2026-05-06 07:42 | 13.98505 | 107.46573 | 37820 ft | 430 kts | 268° |
| 2026-05-06 07:42 | 13.98132 | 107.40471 | 37814 ft | 430 kts | 262° |
| 2026-05-06 07:43 | 13.97172 | 107.34391 | 37820 ft | 431 kts | 261° |
| 2026-05-06 07:43 | 13.96218 | 107.28302 | 37815 ft | 431 kts | 262° |
| 2026-05-06 07:44 | 13.95286 | 107.22212 | 37811 ft | 430 kts | 262° |
| 2026-05-06 07:44 | 13.93840 | 107.16241 | 37810 ft | 433 kts | 246° |
| 2026-05-06 07:45 | 13.92279 | 107.13588 | 37807 ft | 435 kts | 234° |
| 2026-05-06 07:45 | 13.90380 | 107.11165 | 37806 ft | 435 kts | 231° |
| 2026-05-06 07:45 | 13.86498 | 107.06372 | 37800 ft | 436 kts | 231° |
| 2026-05-06 07:46 | 13.82641 | 107.01559 | 37799 ft | 436 kts | 232° |
| 2026-05-06 07:46 | 13.78864 | 106.96681 | 37796 ft | 435 kts | 237° |
| 2026-05-06 07:47 | 13.77470 | 106.93933 | 37792 ft | 434 kts | 250° |
| 2026-05-06 07:47 | 13.76702 | 106.90944 | 37797 ft | 433 kts | 261° |
| 2026-05-06 07:47 | 13.75771 | 106.84830 | 37795 ft | 433 kts | 262° |
| 2026-05-06 07:48 | 13.74841 | 106.78716 | 37791 ft | 433 kts | 262° |
| 2026-05-06 07:48 | 13.73882 | 106.72607 | 37791 ft | 433 kts | 261° |
| 2026-05-06 07:49 | 13.72904 | 106.66495 | 37783 ft | 433 kts | 261° |
| 2026-05-06 07:49 | 13.71931 | 106.60384 | 37786 ft | 433 kts | 261° |
| 2026-05-06 07:50 | 13.70952 | 106.54268 | 37783 ft | 433 kts | 261° |
| 2026-05-06 07:50 | 13.69969 | 106.48150 | 37789 ft | 433 kts | 261° |
| 2026-05-06 07:51 | 13.68993 | 106.42036 | 37785 ft | 434 kts | 261° |
| 2026-05-06 07:51 | 13.68018 | 106.35957 | 37781 ft | 434 kts | 261° |
| 2026-05-06 07:52 | 13.67034 | 106.29844 | 37782 ft | 433 kts | 261° |
| 2026-05-06 07:52 | 13.66047 | 106.23729 | 37781 ft | 434 kts | 261° |
| 2026-05-06 07:53 | 13.65069 | 106.17615 | 37782 ft | 433 kts | 261° |
| 2026-05-06 07:53 | 13.64185 | 106.11489 | 37781 ft | 433 kts | 267° |
| 2026-05-06 07:54 | 13.64287 | 106.05305 | 37784 ft | 432 kts | 272° |
| 2026-05-06 07:54 | 13.64505 | 105.99130 | 37781 ft | 432 kts | 272° |
| 2026-05-06 07:55 | 13.64701 | 105.92954 | 37788 ft | 432 kts | 272° |
| 2026-05-06 07:55 | 13.64898 | 105.86775 | 37787 ft | 432 kts | 272° |
| 2026-05-06 07:56 | 13.65094 | 105.80605 | 37785 ft | 432 kts | 272° |
| 2026-05-06 07:56 | 13.65281 | 105.74434 | 37787 ft | 432 kts | 272° |
| 2026-05-06 07:57 | 13.65475 | 105.68267 | 37788 ft | 431 kts | 272° |
| 2026-05-06 07:57 | 13.65669 | 105.62106 | 37787 ft | 431 kts | 271° |
| 2026-05-06 07:58 | 13.65862 | 105.55944 | 37786 ft | 431 kts | 272° |
| 2026-05-06 07:58 | 13.66056 | 105.49787 | 37797 ft | 431 kts | 272° |
| 2026-05-06 07:59 | 13.66234 | 105.43678 | 37786 ft | 431 kts | 271° |
| 2026-05-06 07:59 | 13.66414 | 105.37515 | 37792 ft | 431 kts | 271° |
| 2026-05-06 08:00 | 13.66596 | 105.31364 | 37788 ft | 430 kts | 271° |
| 2026-05-06 08:00 | 13.66783 | 105.25212 | 37788 ft | 431 kts | 271° |
| 2026-05-06 08:01 | 13.66964 | 105.19055 | 37791 ft | 431 kts | 271° |
| 2026-05-06 08:01 | 13.67142 | 105.12900 | 37792 ft | 431 kts | 271° |
| 2026-05-06 08:02 | 13.67315 | 105.06743 | 37791 ft | 431 kts | 271° |
| 2026-05-06 08:02 | 13.67484 | 105.00582 | 37796 ft | 431 kts | 271° |
| 2026-05-06 08:03 | 13.67634 | 104.95422 | 37798 ft | 431 kts | 271° |
| 2026-05-06 08:03 | 13.67806 | 104.89256 | 37802 ft | 431 kts | 271° |
| 2026-05-06 08:04 | 13.67972 | 104.83093 | 37795 ft | 432 kts | 271° |
| 2026-05-06 08:04 | 13.68141 | 104.76928 | 37800 ft | 431 kts | 271° |
| 2026-05-06 08:05 | 13.68313 | 104.70799 | 37800 ft | 432 kts | 271° |
| 2026-05-06 08:05 | 13.68482 | 104.64629 | 37797 ft | 432 kts | 271° |
| 2026-05-06 08:06 | 13.68647 | 104.58449 | 37808 ft | 432 kts | 271° |
| 2026-05-06 08:06 | 13.68810 | 104.52273 | 37803 ft | 432 kts | 271° |
| 2026-05-06 08:07 | 13.68973 | 104.46094 | 37805 ft | 433 kts | 271° |
| 2026-05-06 08:07 | 13.69131 | 104.39901 | 37802 ft | 434 kts | 271° |
| 2026-05-06 08:08 | 13.69284 | 104.33698 | 37805 ft | 434 kts | 271° |
| 2026-05-06 08:08 | 13.69440 | 104.27484 | 37804 ft | 435 kts | 271° |
| 2026-05-06 08:09 | 13.69602 | 104.21257 | 37802 ft | 436 kts | 271° |
| 2026-05-06 08:09 | 13.69761 | 104.15021 | 37803 ft | 437 kts | 271° |
| 2026-05-06 08:10 | 13.69914 | 104.08774 | 37809 ft | 437 kts | 271° |
| 2026-05-06 08:10 | 13.70061 | 104.02515 | 37804 ft | 438 kts | 271° |
| 2026-05-06 08:11 | 13.70220 | 103.96253 | 37807 ft | 438 kts | 271° |
| 2026-05-06 08:11 | 13.70367 | 103.89987 | 37805 ft | 438 kts | 271° |
| 2026-05-06 08:12 | 13.70517 | 103.83719 | 37805 ft | 439 kts | 271° |
| 2026-05-06 08:12 | 13.70660 | 103.77435 | 37803 ft | 440 kts | 271° |
| 2026-05-06 08:13 | 13.70803 | 103.71146 | 37800 ft | 440 kts | 271° |
| 2026-05-06 08:13 | 13.70937 | 103.64894 | 37795 ft | 440 kts | 271° |
| 2026-05-06 08:14 | 13.71074 | 103.58601 | 37797 ft | 440 kts | 271° |
| 2026-05-06 08:14 | 13.71221 | 103.52302 | 37799 ft | 440 kts | 271° |
| 2026-05-06 08:15 | 13.71364 | 103.46004 | 37797 ft | 440 kts | 270° |
| 2026-05-06 08:15 | 13.71501 | 103.39701 | 37800 ft | 441 kts | 271° |
| 2026-05-06 08:16 | 13.71635 | 103.33408 | 37797 ft | 440 kts | 270° |
| 2026-05-06 08:16 | 13.71763 | 103.27121 | 37796 ft | 440 kts | 271° |
| 2026-05-06 08:17 | 13.71891 | 103.20829 | 37795 ft | 440 kts | 271° |
| 2026-05-06 08:17 | 13.72022 | 103.14541 | 37794 ft | 440 kts | 271° |
| 2026-05-06 08:18 | 13.72159 | 103.08249 | 37796 ft | 440 kts | 271° |
| 2026-05-06 08:18 | 13.72290 | 103.01955 | 37799 ft | 440 kts | 271° |
| 2026-05-06 08:19 | 13.72414 | 102.95664 | 37800 ft | 440 kts | 271° |
| 2026-05-06 08:19 | 13.72531 | 102.89377 | 37802 ft | 440 kts | 271° |
| 2026-05-06 08:20 | 13.72650 | 102.83084 | 37795 ft | 440 kts | 271° |
| 2026-05-06 08:20 | 13.72768 | 102.76789 | 37804 ft | 440 kts | 271° |
| 2026-05-06 08:21 | 13.72890 | 102.70503 | 37800 ft | 440 kts | 271° |
| 2026-05-06 08:21 | 13.72999 | 102.64210 | 37803 ft | 440 kts | 271° |
| 2026-05-06 08:22 | 13.73120 | 102.57922 | 37806 ft | 439 kts | 271° |
| 2026-05-06 08:22 | 13.73338 | 102.51651 | 37803 ft | 439 kts | 274° |
| 2026-05-06 08:23 | 13.73534 | 102.48539 | 37554 ft | 433 kts | 274° |
| 2026-05-06 08:23 | 13.73748 | 102.45480 | 36704 ft | 438 kts | 275° |
| 2026-05-06 08:23 | 13.74101 | 102.42294 | 35452 ft | 446 kts | 277° |
| 2026-05-06 08:23 | 13.74487 | 102.39143 | 34297 ft | 453 kts | 277° |
| 2026-05-06 08:24 | 13.74878 | 102.35917 | 33069 ft | 457 kts | 277° |
| 2026-05-06 08:24 | 13.75258 | 102.32668 | 32063 ft | 455 kts | 277° |
| 2026-05-06 08:24 | 13.75633 | 102.29454 | 31421 ft | 450 kts | 277° |
| 2026-05-06 08:24 | 13.76004 | 102.26287 | 30849 ft | 444 kts | 277° |
| 2026-05-06 08:25 | 13.76366 | 102.23156 | 30290 ft | 437 kts | 277° |
| 2026-05-06 08:25 | 13.76724 | 102.20071 | 29692 ft | 432 kts | 277° |
| 2026-05-06 08:25 | 13.77080 | 102.17012 | 29021 ft | 427 kts | 277° |
| 2026-05-06 08:25 | 13.77431 | 102.13994 | 28368 ft | 422 kts | 277° |
| 2026-05-06 08:26 | 13.77777 | 102.11012 | 27790 ft | 417 kts | 277° |
| 2026-05-06 08:26 | 13.78116 | 102.08078 | 27218 ft | 411 kts | 277° |
| 2026-05-06 08:26 | 13.78452 | 102.05170 | 26627 ft | 407 kts | 277° |
| 2026-05-06 08:26 | 13.78784 | 102.02294 | 26052 ft | 403 kts | 277° |
| 2026-05-06 08:27 | 13.79111 | 101.99448 | 25512 ft | 398 kts | 277° |
| 2026-05-06 08:27 | 13.79436 | 101.96620 | 24763 ft | 399 kts | 277° |
| 2026-05-06 08:27 | 13.79762 | 101.93774 | 24051 ft | 401 kts | 277° |
| 2026-05-06 08:27 | 13.80093 | 101.90929 | 23268 ft | 401 kts | 277° |
| 2026-05-06 08:28 | 13.80453 | 101.88094 | 22209 ft | 399 kts | 278° |
| 2026-05-06 08:28 | 13.80817 | 101.85269 | 21301 ft | 395 kts | 278° |
| 2026-05-06 08:28 | 13.81173 | 101.82489 | 20414 ft | 390 kts | 278° |
| 2026-05-06 08:28 | 13.81507 | 101.79794 | 19602 ft | 385 kts | 277° |
| 2026-05-06 08:29 | 13.81843 | 101.77028 | 18785 ft | 379 kts | 277° |
| 2026-05-06 08:29 | 13.82174 | 101.74351 | 17983 ft | 375 kts | 278° |
| 2026-05-06 08:29 | 13.82507 | 101.71703 | 17098 ft | 370 kts | 278° |
| 2026-05-06 08:29 | 13.82835 | 101.69095 | 16256 ft | 366 kts | 277° |
| 2026-05-06 08:30 | 13.83154 | 101.66518 | 15455 ft | 361 kts | 277° |
| 2026-05-06 08:30 | 13.83470 | 101.63977 | 14755 ft | 354 kts | 277° |
| 2026-05-06 08:30 | 13.83781 | 101.61509 | 14297 ft | 341 kts | 277° |
| 2026-05-06 08:30 | 13.84079 | 101.59138 | 13917 ft | 329 kts | 277° |
| 2026-05-06 08:31 | 13.84373 | 101.56803 | 13542 ft | 328 kts | 277° |
| 2026-05-06 08:31 | 13.84662 | 101.54488 | 13100 ft | 326 kts | 277° |
| 2026-05-06 08:31 | 13.84950 | 101.52174 | 12676 ft | 325 kts | 277° |
| 2026-05-06 08:31 | 13.85234 | 101.49877 | 12284 ft | 323 kts | 277° |
| 2026-05-06 08:32 | 13.85520 | 101.47588 | 11931 ft | 322 kts | 277° |
| 2026-05-06 08:32 | 13.85802 | 101.45310 | 11652 ft | 320 kts | 277° |
| 2026-05-06 08:32 | 13.86083 | 101.43040 | 11393 ft | 320 kts | 277° |
| 2026-05-06 08:32 | 13.86362 | 101.40774 | 11157 ft | 319 kts | 277° |
| 2026-05-06 08:33 | 13.86640 | 101.38519 | 10927 ft | 317 kts | 277° |
| 2026-05-06 08:33 | 13.86912 | 101.36274 | 10661 ft | 313 kts | 277° |
| 2026-05-06 08:33 | 13.87182 | 101.34093 | 10332 ft | 307 kts | 277° |
| 2026-05-06 08:33 | 13.87444 | 101.31907 | 9990 ft | 302 kts | 277° |
| 2026-05-06 08:34 | 13.87700 | 101.29792 | 9661 ft | 300 kts | 277° |
| 2026-05-06 08:34 | 13.88218 | 101.25569 | 8935 ft | 293 kts | 277° |
| 2026-05-06 08:34 | 13.88469 | 101.23518 | 8474 ft | 293 kts | 277° |
| 2026-05-06 08:35 | 13.88719 | 101.21437 | 8046 ft | 293 kts | 276° |
| 2026-05-06 08:35 | 13.88718 | 101.19349 | 7623 ft | 292 kts | 265° |
| 2026-05-06 08:35 | 13.88525 | 101.17269 | 7099 ft | 291 kts | 264° |
| 2026-05-06 08:35 | 13.88329 | 101.15198 | 6524 ft | 290 kts | 264° |
| 2026-05-06 08:36 | 13.88143 | 101.13133 | 5938 ft | 289 kts | 264° |
| 2026-05-06 08:36 | 13.87966 | 101.11080 | 5356 ft | 286 kts | 264° |
| 2026-05-06 08:36 | 13.87794 | 101.09052 | 4946 ft | 283 kts | 264° |
| 2026-05-06 08:36 | 13.87626 | 101.07039 | 4758 ft | 279 kts | 264° |
| 2026-05-06 08:37 | 13.87461 | 101.05085 | 4218 ft | 271 kts | 264° |
| 2026-05-06 08:37 | 13.87324 | 101.03447 | 3722 ft | 275 kts | 264° |
| 2026-05-06 08:37 | 13.87160 | 101.01477 | 3286 ft | 276 kts | 264° |
| 2026-05-06 08:38 | 13.86997 | 100.99529 | 2976 ft | 272 kts | 264° |
| 2026-05-06 08:38 | 13.86834 | 100.97598 | 2612 ft | 271 kts | 263° |
| 2026-05-06 08:38 | 13.86672 | 100.95663 | 2275 ft | 270 kts | 263° |
| 2026-05-06 08:38 | 13.86512 | 100.93770 | 2074 ft | 261 kts | 263° |
| 2026-05-06 08:39 | 13.86359 | 100.91950 | 1981 ft | 250 kts | 263° |
| 2026-05-06 08:39 | 13.86213 | 100.90215 | 1958 ft | 236 kts | 264° |
| 2026-05-06 08:39 | 13.86076 | 100.88593 | 1951 ft | 220 kts | 263° |
| 2026-05-06 08:39 | 13.85952 | 100.87092 | 1954 ft | 201 kts | 263° |
| 2026-05-06 08:40 | 13.85837 | 100.85707 | 1965 ft | 193 kts | 263° |
| 2026-05-06 08:40 | 13.85722 | 100.84337 | 1977 ft | 192 kts | 262° |
| 2026-05-06 08:40 | 13.85606 | 100.82972 | 1980 ft | 190 kts | 263° |
| 2026-05-06 08:40 | 13.85470 | 100.81613 | 1992 ft | 190 kts | 257° |
| 2026-05-06 08:41 | 13.84903 | 100.80426 | 1979 ft | 186 kts | 220° |
| 2026-05-06 08:41 | 13.83773 | 100.79823 | 1983 ft | 181 kts | 195° |
| 2026-05-06 08:41 | 13.82582 | 100.79533 | 1982 ft | 170 kts | 190° |
| 2026-05-06 08:41 | 13.81501 | 100.79304 | 2042 ft | 154 kts | 190° |
| 2026-05-06 08:42 | 13.80457 | 100.79068 | 2033 ft | 152 kts | 191° |
| 2026-05-06 08:42 | 13.79418 | 100.78806 | 1955 ft | 155 kts | 193° |
| 2026-05-06 08:42 | 13.78373 | 100.78532 | 1807 ft | 155 kts | 193° |
| 2026-05-06 08:42 | 13.77348 | 100.78263 | 1651 ft | 148 kts | 192° |
| 2026-05-06 08:43 | 13.76402 | 100.78012 | 1465 ft | 135 kts | 193° |
| 2026-05-06 08:43 | 13.75497 | 100.77772 | 1248 ft | 132 kts | 193° |
| 2026-05-06 08:43 | 13.74622 | 100.77542 | 1089 ft | 130 kts | 194° |
| 2026-05-06 08:43 | 13.73750 | 100.77313 | 926 ft | 130 kts | 194° |
| 2026-05-06 08:44 | 13.72882 | 100.77089 | 833 ft | 130 kts | 195° |
| 2026-05-06 08:44 | 13.72007 | 100.76845 | 644 ft | 129 kts | 197° |
| 2026-05-06 08:44 | 13.71126 | 100.76623 | 412 ft | 130 kts | 198° |
| 2026-05-06 08:44 | 13.70265 | 100.76393 | 294 ft | 129 kts | 198° |
| 2026-05-06 08:45 | 13.69395 | 100.76160 | 125 ft | 128 kts | 197° |
| 2026-05-06 08:45 | 13.68537 | 100.75936 | 32 ft | 120 kts | 197° |
| 2026-05-06 08:45 | 13.67676 | 100.75702 | 310 ft | 136 kts | 197° |
| 2026-05-06 08:45 | 13.66772 | 100.75471 | 897 ft | 133 kts | 192° |
| 2026-05-06 08:46 | 13.65849 | 100.75246 | 1427 ft | 150 kts | 193° |
| 2026-05-06 08:46 | 13.64715 | 100.75028 | 2211 ft | 182 kts | 178° |
| 2026-05-06 08:46 | 13.63469 | 100.75479 | 3020 ft | 196 kts | 142° |
| 2026-05-06 08:46 | 13.62455 | 100.76433 | 3616 ft | 200 kts | 134° |
| 2026-05-06 08:47 | 13.61607 | 100.77549 | 3840 ft | 199 kts | 115° |
| 2026-05-06 08:47 | 13.61322 | 100.78934 | 3945 ft | 200 kts | 86° |
| 2026-05-06 08:47 | 13.61725 | 100.80297 | 3991 ft | 203 kts | 63° |
| 2026-05-06 08:47 | 13.62473 | 100.81521 | 4009 ft | 202 kts | 58° |
| 2026-05-06 08:48 | 13.63226 | 100.82740 | 3994 ft | 203 kts | 60° |
| 2026-05-06 08:48 | 13.63711 | 100.83558 | 3992 ft | 202 kts | 60° |
| 2026-05-06 08:48 | 13.64432 | 100.84796 | 3994 ft | 202 kts | 60° |
| 2026-05-06 08:48 | 13.65803 | 100.86072 | 3988 ft | 205 kts | 22° |
| 2026-05-06 08:49 | 13.66715 | 100.86338 | 3996 ft | 205 kts | 15° |
| 2026-05-06 08:49 | 13.68112 | 100.86672 | 4004 ft | 206 kts | 16° |
| 2026-05-06 08:49 | 13.69499 | 100.87022 | 3902 ft | 205 kts | 16° |
| 2026-05-06 08:49 | 13.70891 | 100.87376 | 3663 ft | 207 kts | 16° |
| 2026-05-06 08:50 | 13.72300 | 100.87743 | 3514 ft | 211 kts | 16° |
| 2026-05-06 08:50 | 13.73720 | 100.88111 | 3343 ft | 210 kts | 16° |
| 2026-05-06 08:50 | 13.75131 | 100.88488 | 3174 ft | 210 kts | 17° |
| 2026-05-06 08:50 | 13.76546 | 100.88865 | 3029 ft | 209 kts | 16° |
| 2026-05-06 08:51 | 13.77949 | 100.89245 | 2658 ft | 209 kts | 16° |
| 2026-05-06 08:51 | 13.79364 | 100.89604 | 2324 ft | 212 kts | 6° |
| 2026-05-06 08:51 | 13.80850 | 100.89389 | 2160 ft | 227 kts | 336° |
| 2026-05-06 08:51 | 13.82009 | 100.88342 | 1971 ft | 219 kts | 299° |
| 2026-05-06 08:52 | 13.82616 | 100.86966 | 1955 ft | 204 kts | 289° |
| 2026-05-06 08:52 | 13.83124 | 100.85644 | 1961 ft | 196 kts | 290° |
| 2026-05-06 08:52 | 13.83653 | 100.84352 | 1975 ft | 195 kts | 291° |
| 2026-05-06 08:52 | 13.84194 | 100.83077 | 1982 ft | 195 kts | 289° |
| 2026-05-06 08:53 | 13.84265 | 100.81739 | 1974 ft | 189 kts | 246° |
| 2026-05-06 08:53 | 13.83443 | 100.80760 | 1977 ft | 183 kts | 203° |
| 2026-05-06 08:53 | 13.82191 | 100.80597 | 1992 ft | 185 kts | 175° |
| 2026-05-06 08:53 | 13.80925 | 100.80800 | 1896 ft | 186 kts | 162° |
| 2026-05-06 08:54 | 13.79908 | 100.81506 | 1967 ft | 184 kts | 122° |
| 2026-05-06 08:54 | 13.79738 | 100.82796 | 2239 ft | 190 kts | 72° |
| 2026-05-06 08:54 | 13.80388 | 100.84006 | 2200 ft | 193 kts | 62° |
| 2026-05-06 08:54 | 13.81324 | 100.84981 | 2057 ft | 196 kts | 27° |
| 2026-05-06 08:55 | 13.82604 | 100.85484 | 2019 ft | 198 kts | 19° |
| 2026-05-06 08:55 | 13.83948 | 100.85822 | 2002 ft | 200 kts | 7° |
| 2026-05-06 08:55 | 13.85333 | 100.85711 | 2000 ft | 200 kts | 340° |
| 2026-05-06 08:55 | 13.86484 | 100.84936 | 1996 ft | 198 kts | 309° |
| 2026-05-06 08:56 | 13.87117 | 100.83702 | 2005 ft | 195 kts | 280° |
| 2026-05-06 08:56 | 13.87078 | 100.82354 | 1990 ft | 188 kts | 248° |
| 2026-05-06 08:56 | 13.86503 | 100.81153 | 1991 ft | 187 kts | 227° |
| 2026-05-06 08:56 | 13.85420 | 100.80484 | 1988 ft | 183 kts | 198° |
| 2026-05-06 08:57 | 13.84179 | 100.80150 | 1989 ft | 188 kts | 189° |
| 2026-05-06 08:57 | 13.82937 | 100.79817 | 2020 ft | 173 kts | 189° |
| 2026-05-06 08:57 | 13.81820 | 100.79622 | 2037 ft | 150 kts | 191° |
| 2026-05-06 08:57 | 13.80909 | 100.79330 | 1957 ft | 134 kts | 200° |
| 2026-05-06 08:58 | 13.80043 | 100.79003 | 1965 ft | 132 kts | 194° |
| 2026-05-06 08:58 | 13.79156 | 100.78749 | 1928 ft | 131 kts | 193° |
| 2026-05-06 08:58 | 13.78266 | 100.78508 | 1817 ft | 134 kts | 192° |
| 2026-05-06 08:58 | 13.77359 | 100.78266 | 1684 ft | 134 kts | 191° |
| 2026-05-06 08:59 | 13.76453 | 100.78026 | 1477 ft | 134 kts | 193° |
| 2026-05-06 08:59 | 13.75541 | 100.77785 | 1256 ft | 136 kts | 194° |
| 2026-05-06 08:59 | 13.74648 | 100.77549 | 1068 ft | 130 kts | 194° |
| 2026-05-06 08:59 | 13.73782 | 100.77320 | 908 ft | 130 kts | 193° |
| 2026-05-06 09:00 | 13.72913 | 100.77095 | 798 ft | 128 kts | 196° |
| 2026-05-06 09:00 | 13.72033 | 100.76861 | 608 ft | 130 kts | 199° |
| 2026-05-06 09:00 | 13.71180 | 100.76641 | 403 ft | 128 kts | 199° |
| 2026-05-06 09:00 | 13.70330 | 100.76407 | 272 ft | 127 kts | 199° |
| 2026-05-06 09:01 | 13.69472 | 100.76185 | 133 ft | 127 kts | 198° |
| 2026-05-06 09:01 | 13.68627 | 100.75964 | 28 ft | 121 kts | 196° |
| 2026-05-06 09:01 | 13.67908 | 100.75772 | 16 ft | 85 kts | 194° |
| 2026-05-06 09:01 | 13.67499 | 100.75663 | 18 ft | 41 kts | 194° |
| 2026-05-06 09:02 | 13.67266 | 100.75592 | 19 ft | 30 kts | 205° |
| 2026-05-06 09:02 | 13.67126 | 100.75478 | 18 ft | 18 kts | 224° |
| 2026-05-06 09:02 | 13.67083 | 100.75417 | 18 ft | 11 kts | 267° |
| 2026-05-06 09:02 | 13.67154 | 100.75383 | 19 ft | 15 kts | 9° |
| 2026-05-06 09:03 | 13.67264 | 100.75412 | 18 ft | 18 kts | 14° |
| 2026-05-06 09:03 | 13.67395 | 100.75446 | 18 ft | 21 kts | 13° |
| 2026-05-06 09:03 | 13.67547 | 100.75483 | 18 ft | 24 kts | 13° |
| 2026-05-06 09:03 | 13.67716 | 100.75528 | 18 ft | 26 kts | 15° |
| 2026-05-06 09:04 | 13.67902 | 100.75579 | 21 ft | 29 kts | 14° |
| 2026-05-06 09:04 | 13.68081 | 100.75625 | 18 ft | 26 kts | 14° |
| 2026-05-06 09:04 | 13.68251 | 100.75671 | 19 ft | 19 kts | 14° |
| 2026-05-06 09:04 | 13.68393 | 100.75707 | 19 ft | 22 kts | 12° |
| 2026-05-06 09:05 | 13.68469 | 100.75586 | 19 ft | 24 kts | 288° |
| 2026-05-06 09:05 | 13.68516 | 100.75410 | 19 ft | 27 kts | 284° |
| 2026-05-06 09:05 | 13.68559 | 100.75237 | 19 ft | 12 kts | 285° |
| 2026-05-06 09:05 | 13.68589 | 100.75146 | 21 ft | 14 kts | 315° |
| 2026-05-06 09:06 | 13.68694 | 100.75160 | 19 ft | 17 kts | 15° |
| 2026-05-06 09:06 | 13.68761 | 100.75194 | 19 ft | 10 kts | 82° |
| 2026-05-06 09:06 | 13.68745 | 100.75247 | 19 ft | 5 kts | 106° |
| 2026-05-06 09:06 | 13.68744 | 100.75250 | 19 ft | 0 kts | 106° |